Date,TemperatureHighF,TemperatureAvgF,TemperatureLowF,DewpointHighF,DewpointAvgF,DewpointLowF,HumidityHigh,HumidityAvg,HumidityLow,PressureMaxIn,PressureMinIn,WindSpeedMaxMPH,WindSpeedAvgMPH,GustSpeedMaxMPH,PrecipitationSumIn
2013-4-6,78,70,63,51,49,44,64,49,32,29.85,28.17,39,27,55,0.70
2013-4-7,82,69,57,51,47,42,71,49,24,28.23,28.04,37,22,48,0.00
2013-10-25,83,83,83,40,40,40,22,22,22,28.36,28.36,10,10,14,0.00
2013-10-30,67,63,61,34,33,32,35,32,27,28.39,28.32,8,4,10,0.00
2013-10-31,79,67,60,34,32,29,35,28,19,28.46,28.37,8,3,11,0.00
2013-11-1,81,72,65,36,31,24,28,23,18,28.48,28.37,6,3,12,0.00
2013-11-2,79,72,63,36,33,27,31,24,19,28.39,28.19,21,7,26,0.00
2013-11-3,75,66,58,49,37,32,72,36,24,28.19,28.09,29,19,40,0.00
2013-11-4,66,59,56,48,45,43,75,60,44,28.25,28.06,33,25,44,0.00
2013-11-5,67,61,55,43,22,16,63,23,15,28.53,28.25,25,12,39,0.00
2013-11-6,75,67,59,17,16,14,18,14,11,28.62,28.52,8,3,10,0.00
2013-11-7,78,72,67,24,21,16,17,14,13,28.52,28.39,9,2,13,0.00
2013-11-8,77,72,68,27,22,17,20,16,13,28.39,28.29,10,4,14,0.00
2013-11-9,77,69,57,29,23,9,24,17,11,28.42,28.33,9,4,11,0.80
2013-11-10,75,66,58,20,13,6,16,13,9,28.46,28.39,7,3,8,0.00
2013-11-11,80,69,64,27,19,13,16,14,13,28.46,28.38,9,6,10,0.00
2013-11-12,78,72,69,19,17,15,14,12,11,28.52,28.44,9,5,12,0.00
2013-11-13,79,73,70,24,17,13,15,12,10,28.44,28.33,7,4,12,0.00
2013-11-14,77,70,65,18,14,11,15,12,9,28.34,28.09,10,5,14,0.00
2013-11-15,66,59,53,46,33,15,66,41,14,28.09,27.93,34,19,47,0.00
2013-11-16,63,58,56,46,44,41,68,58,49,28.15,28.01,38,28,49,0.00
2013-11-18,71,66,57,47,42,40,69,44,32,28.44,28.34,24,9,35,0.00
2013-11-19,63,60,56,48,45,43,74,58,49,28.34,28.22,34,28,48,0.00
2013-11-20,64,59,56,48,46,44,72,61,49,28.20,28.14,39,29,56,0.00
2013-11-21,63,59,55,51,47,41,78,66,54,28.22,28.16,25,10,37,0.00
2013-11-22,57,51,47,42,38,34,71,61,44,28.32,28.19,22,11,36,0.60
2013-11-23,60,53,48,38,37,35,66,55,43,28.43,28.31,11,7,20,0.00
2013-11-24,64,56,50,38,35,33,62,47,32,28.52,28.43,10,4,22,0.00
2013-11-25,71,61,52,37,32,29,54,36,21,28.57,28.49,9,4,14,0.00
2013-11-26,66,62,59,35,31,26,38,31,26,28.59,28.47,11,6,15,0.00
2013-11-27,67,61,57,30,29,27,35,29,24,28.47,28.30,8,5,15,0.00
2013-11-28,66,60,56,29,28,26,34,29,23,28.41,28.30,6,3,13,0.00
2013-11-29,66,61,58,43,34,28,51,37,26,28.51,28.41,14,5,20,0.00
2013-11-30,74,64,59,39,32,26,45,30,20,28.52,28.43,9,5,11,0.00
2013-12-1,72,64,62,28,24,16,26,21,14,28.58,28.50,10,6,14,0.00
2013-12-2,72,66,62,26,19,14,24,16,12,28.45,28.18,15,5,20,0.00
2013-12-3,68,62,56,46,32,19,68,36,16,28.18,27.98,34,16,51,0.00
2013-12-4,58,52,47,46,23,10,68,35,21,28.29,27.99,35,13,47,0.00
2013-12-5,53,47,43,22,15,11,39,28,23,28.39,28.27,9,5,14,0.00
2013-12-6,51,47,42,27,23,19,46,39,30,28.49,28.37,13,6,24,0.00
2013-12-7,55,50,43,39,33,28,63,53,44,28.39,28.19,39,22,58,0.00
2013-12-8,53,47,43,31,24,6,55,40,21,28.52,28.30,39,12,58,0.00
2013-12-9,49,43,41,6,-5,-11,22,13,9,28.73,28.52,24,10,35,0.00
2013-12-10,57,48,41,-1,-8,-12,12,9,6,28.70,28.48,9,4,12,0.00
2013-12-11,64,56,50,10,4,-4,15,12,9,28.56,28.48,8,3,12,0.00
2013-12-12,65,58,55,34,20,7,37,24,13,28.55,28.42,16,7,26,0.00
2013-12-13,67,58,53,32,25,9,38,28,13,28.58,28.41,16,8,25,0.00
2013-12-14,67,61,56,16,13,9,20,15,12,28.69,28.56,17,9,27,0.00
2013-12-15,71,64,58,20,14,10,18,14,10,28.68,28.53,16,6,23,0.00
2013-12-16,75,70,66,20,17,14,16,13,11,28.55,28.48,7,3,9,0.00
2013-12-17,72,70,68,21,18,15,16,14,12,28.54,28.38,5,3,7,0.00
2013-12-18,73,67,54,40,21,16,58,18,13,28.38,28.10,21,4,30,0.00
2013-12-19,57,53,50,40,38,34,62,55,47,28.10,28.00,32,21,43,0.00
2013-12-20,62,53,47,38,32,28,64,47,28,28.21,28.05,26,15,33,0.00
2013-12-21,61,53,49,40,37,35,65,55,40,28.38,28.15,32,21,46,0.00
2013-12-22,64,57,53,38,33,26,51,41,24,28.61,28.38,11,5,18,0.00
2013-12-23,72,64,59,29,25,24,28,23,18,28.71,28.59,7,3,12,0.00
2013-12-24,76,67,59,27,25,23,26,20,16,28.59,28.49,17,5,25,0.00
2013-12-25,71,65,60,26,17,6,26,17,10,28.64,28.54,22,10,28,0.00
2013-12-26,73,66,60,7,2,-3,11,8,6,28.60,28.50,10,5,14,0.00
2013-12-27,75,67,62,13,2,-6,12,8,5,28.55,28.43,10,5,13,0.00
2013-12-28,67,63,60,19,10,4,20,12,9,28.43,28.27,8,4,14,0.00
2013-12-29,65,62,58,11,5,-1,14,10,8,28.51,28.33,22,11,35,0.00
2013-12-30,68,61,56,11,2,-3,14,9,6,28.59,28.51,8,4,12,0.00
2013-12-31,70,62,55,11,5,0,14,10,6,28.55,28.43,6,3,9,0.00
2014-1-1,72,65,58,7,4,2,10,9,7,28.49,28.44,4,4,8,0.00
2014-1-2,71,67,63,24,19,12,21,16,12,28.49,28.38,9,4,13,0.00